Cristina A — TCQY7 — position and weather

sailwx.info

Track history (hours):
 
Tides and Currents Weather Stations Pressure Air Temp Water Temp Dewpoint Dewpoint Depression Visibility Wind Speed Wind Dir Waves Ship Positions

Cristina A

Last reported at 2017-Nov-19 11:09 UTC. Time now 2017-Nov-21 22:57 UTC.
Position N 37°39' E 025°52'.

Length 184 m; draft 9.3 m.

Type: Ship (hazmat cat A). MMSI: 271001052.

Date/timePositionNaut miles runAvg speedWind from/ knotsBaromVisibWave heightAir tempDewpointWater temp
2017-Nov-19 11:09N 37°39' E 025°52'214.1
2017-Nov-19 11:00N 37°37' E 025°52'714.1
2017-Nov-19 10:30N 37°30' E 025°54'23712.8
2017-Nov-18 16:00N 36°07' E 030°31'815.5
2017-Nov-18 15:30N 36°14' E 030°35'815.2
2017-Nov-18 15:00N 36°21' E 030°37'814.9
2017-Nov-18 14:30N 36°28' E 030°39'714.1
2017-Nov-18 14:00N 36°35' E 030°40'713.7
2017-Nov-18 13:30N 36°42' E 030°41'713.3
2017-Nov-18 12:59N 36°49' E 030°40'3 5.8
2017-Nov-18 12:29N 36°50' E 030°37'0 0.1
2017-Nov-18 11:26N 36°50' E 030°37'0 0.0
2017-Nov-18 10:31N 36°50' E 030°37'0 0.0
2017-Nov-18 10:19N 36°50' E 030°37'0 0.0
2017-Nov-18 08:30N 36°50' E 030°37'0 0.0
2017-Nov-18 08:00N 36°50' E 030°37'0 0.0
2017-Nov-18 07:24N 36°50' E 030°37'0 0.0
2017-Nov-18 06:11N 36°50' E 030°37'0 0.0
2017-Nov-18 05:53N 36°50' E 030°37'0 0.0
2017-Nov-18 04:53N 36°50' E 030°37'0 0.0
2017-Nov-18 04:29N 36°50' E 030°37'0 0.0
2017-Nov-18 02:58N 36°50' E 030°37'0 0.0
2017-Nov-18 02:28N 36°50' E 030°37'0 0.0
2017-Nov-18 01:57N 36°50' E 030°37'0 0.0
2017-Nov-18 01:21N 36°50' E 030°37'0 0.0
2017-Nov-18 00:51N 36°50' E 030°37'0 0.0
2017-Nov-18 00:27N 36°50' E 030°37'0 0.0
2017-Nov-17 23:57N 36°50' E 030°37'0 0.0
2017-Nov-17 23:20N 36°50' E 030°37'0 0.0
2017-Nov-17 22:08N 36°50' E 030°37'0 0.0
2017-Nov-17 21:07N 36°50' E 030°37'0 0.0
2017-Nov-17 20:55N 36°50' E 030°37'0 0.0
2017-Nov-17 20:25N 36°50' E 030°37'0 0.0
2017-Nov-17 19:49N 36°50' E 030°37'0 0.0
2017-Nov-17 19:13N 36°50' E 030°37'0 0.0
2017-Nov-17 19:01N 36°50' E 030°37'0 0.0
2017-Nov-17 17:18N 36°50' E 030°37'0 0.0
2017-Nov-17 16:48N 36°50' E 030°37'0 0.0
2017-Nov-17 15:53N 36°50' E 030°37'0 0.0
2017-Nov-17 14:35N 36°50' E 030°37'0 0.0
2017-Nov-17 14:04N 36°50' E 030°37'0 0.0
2017-Nov-17 13:58N 36°50' E 030°37'0 0.0
2017-Nov-17 13:13N 36°50' E 030°37'0 0.0
2017-Nov-17 12:52N 36°50' E 030°37'0 0.0
2017-Nov-17 12:22N 36°50' E 030°37'0 0.0
2017-Nov-17 11:51N 36°50' E 030°37'0 0.0
2017-Nov-17 11:29N 36°50' E 030°37'1 1.3
2017-Nov-17 10:59N 36°50' E 030°37'2 3.2
2017-Nov-17 10:30N 36°50' E 030°39'510.5
2017-Nov-17 10:00N 36°45' E 030°42'4 8.1
2017-Nov-17 09:30N 36°41' E 030°44'0 0.6
2017-Nov-17 09:00N 36°41' E 030°44'0 0.7
2017-Nov-17 08:30N 36°42' E 030°44'0 0.7
2017-Nov-17 07:59N 36°42' E 030°44'0 0.7
2017-Nov-17 07:29N 36°42' E 030°44'0 0.7
2017-Nov-17 07:00N 36°43' E 030°44'0 0.7
2017-Nov-17 06:30N 36°43' E 030°44'0 0.8
2017-Nov-17 05:58N 36°43' E 030°44'0 0.9
2017-Nov-17 05:29N 36°44' E 030°44'0 0.8
2017-Nov-17 05:00N 36°44' E 030°44'0 0.5
2017-Nov-17 04:30N 36°44' E 030°43'1 1.0
2017-Nov-17 04:00N 36°44' E 030°43'611.2
2017-Nov-17 03:31N 36°39' E 030°47'814.9
2017-Nov-17 02:59N 36°32' E 030°51'815.1
2017-Nov-17 02:28N 36°25' E 030°57'715.1
2017-Nov-17 02:00N 36°20' E 031°01'815.4
2017-Nov-17 01:31N 36°13' E 031°06'1915.8
2017-Nov-17 00:17N 35°56' E 031°17'515.9
2017-Nov-17 00:00N 35°52' E 031°20'816.0
2017-Nov-16 23:30N 35°45' E 031°25'815.9
2017-Nov-16 23:00N 35°38' E 031°30'815.7
2017-Nov-16 22:30N 35°31' E 031°34'815.6
2017-Nov-16 22:00N 35°24' E 031°39'8715.2
2017-Nov-16 16:17N 34°09' E 032°31'161 4.2
2017-Nov-15 01:34N 32°04' E 034°32'114.8
2017-Nov-15 01:30N 32°05' E 034°33'714.6
2017-Nov-15 01:00N 32°12' E 034°35'714.4
2017-Nov-15 00:30N 32°19' E 034°37'714.3
2017-Nov-15 00:00N 32°26' E 034°40'714.1
2017-Nov-14 23:31N 32°32' E 034°42'714.0
2017-Nov-14 23:00N 32°39' E 034°45'714.2
2017-Nov-14 22:30N 32°46' E 034°47'714.2
2017-Nov-14 22:00N 32°53' E 034°49'1 0.1
2017-Nov-14 05:23N 32°54' E 034°50'51616.2
2017-Nov-12 21:33N 37°28' E 025°55'115.7
2017-Nov-12 21:31N 37°28' E 025°55'815.1
2017-Nov-12 21:00N 37°36' E 025°53'81 1.9
2017-Nov-11 02:43N 37°36' E 024°11'615.3
2017-Nov-11 02:18N 37°32' E 024°05'617.2
2017-Nov-11 01:59N 37°33' E 023°58'816.9
2017-Nov-11 01:30N 37°36' E 023°48'816.1
2017-Nov-11 01:00N 37°42' E 023°41'815.8
2017-Nov-11 00:30N 37°49' E 023°37'713.4
2017-Nov-11 00:00N 37°56' E 023°36'2 4.2
2017-Nov-10 23:30N 37°57' E 023°35'0 0.2
2017-Nov-10 23:00N 37°57' E 023°35'0 0.0
2017-Nov-10 22:30N 37°57' E 023°35'0 0.0
2017-Nov-10 21:55N 37°57' E 023°35'0 0.0
2017-Nov-10 21:25N 37°57' E 023°35'0 0.0
2017-Nov-10 21:00N 37°57' E 023°35'0 0.0
2017-Nov-10 20:30N 37°57' E 023°35'0 0.0
2017-Nov-10 19:54N 37°57' E 023°35'0 0.0
2017-Nov-10 19:30N 37°57' E 023°35'0 0.0
2017-Nov-10 18:59N 37°57' E 023°35'0 0.0
2017-Nov-10 18:29N 37°57' E 023°35'0 0.0
2017-Nov-10 17:59N 37°57' E 023°35'0 0.0
2017-Nov-10 17:29N 37°57' E 023°35'0 0.0
2017-Nov-10 16:59N 37°57' E 023°35'0 0.0
2017-Nov-10 16:28N 37°57' E 023°35'0 0.0
2017-Nov-10 15:58N 37°57' E 023°35'0 0.0
2017-Nov-10 15:28N 37°57' E 023°35'0 0.0
2017-Nov-10 14:58N 37°57' E 023°35'0 0.0
2017-Nov-10 14:28N 37°57' E 023°35'0 0.0
2017-Nov-10 13:51N 37°57' E 023°35'0 0.0
2017-Nov-10 13:21N 37°57' E 023°35'0 0.0
2017-Nov-10 12:57N 37°57' E 023°35'0 0.1
2017-Nov-10 12:30N 37°57' E 023°35'2 3.3
2017-Nov-10 12:01N 37°56' E 023°36'1 3.0
2017-Nov-10 11:31N 37°55' E 023°36'4 8.2
2017-Nov-10 11:00N 37°51' E 023°39'714.3
2017-Nov-10 10:30N 37°45' E 023°43'713.9
2017-Nov-10 10:00N 37°39' E 023°48'  
Track history (hours):
 
Tides and Currents Weather Stations Pressure Air Temp Water Temp Dewpoint Dewpoint Depression Visibility Wind Speed Wind Dir Waves Ship Positions

Cristina A

Last reported at 2017-Nov-19 11:09 UTC. Time now 2017-Nov-21 22:57 UTC.
Position N 37°39' E 025°52'.

Length 184 m; draft 9.3 m.

Type: Ship (hazmat cat A). MMSI: 271001052.

Date/timePositionNaut miles runAvg speedWind from/ knotsBaromVisibWave heightAir tempDewpointWater temp
2017-Nov-19 11:09N 37°39' E 025°52'214.1
2017-Nov-19 11:00N 37°37' E 025°52'714.1
2017-Nov-19 10:30N 37°30' E 025°54'23712.8
2017-Nov-18 16:00N 36°07' E 030°31'815.5
2017-Nov-18 15:30N 36°14' E 030°35'815.2
2017-Nov-18 15:00N 36°21' E 030°37'814.9
2017-Nov-18 14:30N 36°28' E 030°39'714.1
2017-Nov-18 14:00N 36°35' E 030°40'713.7
2017-Nov-18 13:30N 36°42' E 030°41'713.3
2017-Nov-18 12:59N 36°49' E 030°40'3 5.8
2017-Nov-18 12:29N 36°50' E 030°37'0 0.1
2017-Nov-18 11:26N 36°50' E 030°37'0 0.0
2017-Nov-18 10:31N 36°50' E 030°37'0 0.0
2017-Nov-18 10:19N 36°50' E 030°37'0 0.0
2017-Nov-18 08:30N 36°50' E 030°37'0 0.0
2017-Nov-18 08:00N 36°50' E 030°37'0 0.0
2017-Nov-18 07:24N 36°50' E 030°37'0 0.0
2017-Nov-18 06:11N 36°50' E 030°37'0 0.0
2017-Nov-18 05:53N 36°50' E 030°37'0 0.0
2017-Nov-18 04:53N 36°50' E 030°37'0 0.0
2017-Nov-18 04:29N 36°50' E 030°37'0 0.0
2017-Nov-18 02:58N 36°50' E 030°37'0 0.0
2017-Nov-18 02:28N 36°50' E 030°37'0 0.0
2017-Nov-18 01:57N 36°50' E 030°37'0 0.0
2017-Nov-18 01:21N 36°50' E 030°37'0 0.0
2017-Nov-18 00:51N 36°50' E 030°37'0 0.0
2017-Nov-18 00:27N 36°50' E 030°37'0 0.0
2017-Nov-17 23:57N 36°50' E 030°37'0 0.0
2017-Nov-17 23:20N 36°50' E 030°37'0 0.0
2017-Nov-17 22:08N 36°50' E 030°37'0 0.0
2017-Nov-17 21:07N 36°50' E 030°37'0 0.0
2017-Nov-17 20:55N 36°50' E 030°37'0 0.0
2017-Nov-17 20:25N 36°50' E 030°37'0 0.0
2017-Nov-17 19:49N 36°50' E 030°37'0 0.0
2017-Nov-17 19:13N 36°50' E 030°37'0 0.0
2017-Nov-17 19:01N 36°50' E 030°37'0 0.0
2017-Nov-17 17:18N 36°50' E 030°37'0 0.0
2017-Nov-17 16:48N 36°50' E 030°37'0 0.0
2017-Nov-17 15:53N 36°50' E 030°37'0 0.0
2017-Nov-17 14:35N 36°50' E 030°37'0 0.0
2017-Nov-17 14:04N 36°50' E 030°37'0 0.0
2017-Nov-17 13:58N 36°50' E 030°37'0 0.0
2017-Nov-17 13:13N 36°50' E 030°37'0 0.0
2017-Nov-17 12:52N 36°50' E 030°37'0 0.0
2017-Nov-17 12:22N 36°50' E 030°37'0 0.0
2017-Nov-17 11:51N 36°50' E 030°37'0 0.0
2017-Nov-17 11:29N 36°50' E 030°37'1 1.3
2017-Nov-17 10:59N 36°50' E 030°37'2 3.2
2017-Nov-17 10:30N 36°50' E 030°39'510.5
2017-Nov-17 10:00N 36°45' E 030°42'4 8.1
2017-Nov-17 09:30N 36°41' E 030°44'0 0.6
2017-Nov-17 09:00N 36°41' E 030°44'0 0.7
2017-Nov-17 08:30N 36°42' E 030°44'0 0.7
2017-Nov-17 07:59N 36°42' E 030°44'0 0.7
2017-Nov-17 07:29N 36°42' E 030°44'0 0.7
2017-Nov-17 07:00N 36°43' E 030°44'0 0.7
2017-Nov-17 06:30N 36°43' E 030°44'0 0.8
2017-Nov-17 05:58N 36°43' E 030°44'0 0.9
2017-Nov-17 05:29N 36°44' E 030°44'0 0.8
2017-Nov-17 05:00N 36°44' E 030°44'0 0.5
2017-Nov-17 04:30N 36°44' E 030°43'1 1.0
2017-Nov-17 04:00N 36°44' E 030°43'611.2
2017-Nov-17 03:31N 36°39' E 030°47'814.9
2017-Nov-17 02:59N 36°32' E 030°51'815.1
2017-Nov-17 02:28N 36°25' E 030°57'715.1
2017-Nov-17 02:00N 36°20' E 031°01'815.4
2017-Nov-17 01:31N 36°13' E 031°06'1915.8
2017-Nov-17 00:17N 35°56' E 031°17'515.9
2017-Nov-17 00:00N 35°52' E 031°20'816.0
2017-Nov-16 23:30N 35°45' E 031°25'815.9
2017-Nov-16 23:00N 35°38' E 031°30'815.7
2017-Nov-16 22:30N 35°31' E 031°34'815.6
2017-Nov-16 22:00N 35°24' E 031°39'8715.2
2017-Nov-16 16:17N 34°09' E 032°31'161 4.2
2017-Nov-15 01:34N 32°04' E 034°32'114.8
2017-Nov-15 01:30N 32°05' E 034°33'714.6
2017-Nov-15 01:00N 32°12' E 034°35'714.4
2017-Nov-15 00:30N 32°19' E 034°37'714.3
2017-Nov-15 00:00N 32°26' E 034°40'714.1
2017-Nov-14 23:31N 32°32' E 034°42'714.0
2017-Nov-14 23:00N 32°39' E 034°45'714.2
2017-Nov-14 22:30N 32°46' E 034°47'714.2
2017-Nov-14 22:00N 32°53' E 034°49'1 0.1
2017-Nov-14 05:23N 32°54' E 034°50'51616.2
2017-Nov-12 21:33N 37°28' E 025°55'115.7
2017-Nov-12 21:31N 37°28' E 025°55'815.1
2017-Nov-12 21:00N 37°36' E 025°53'81 1.9
2017-Nov-11 02:43N 37°36' E 024°11'615.3
2017-Nov-11 02:18N 37°32' E 024°05'617.2
2017-Nov-11 01:59N 37°33' E 023°58'816.9
2017-Nov-11 01:30N 37°36' E 023°48'816.1
2017-Nov-11 01:00N 37°42' E 023°41'815.8
2017-Nov-11 00:30N 37°49' E 023°37'713.4
2017-Nov-11 00:00N 37°56' E 023°36'2 4.2
2017-Nov-10 23:30N 37°57' E 023°35'0 0.2
2017-Nov-10 23:00N 37°57' E 023°35'0 0.0
2017-Nov-10 22:30N 37°57' E 023°35'0 0.0
2017-Nov-10 21:55N 37°57' E 023°35'0 0.0
2017-Nov-10 21:25N 37°57' E 023°35'0 0.0
2017-Nov-10 21:00N 37°57' E 023°35'0 0.0
2017-Nov-10 20:30N 37°57' E 023°35'0 0.0
2017-Nov-10 19:54N 37°57' E 023°35'0 0.0
2017-Nov-10 19:30N 37°57' E 023°35'0 0.0
2017-Nov-10 18:59N 37°57' E 023°35'0 0.0
2017-Nov-10 18:29N 37°57' E 023°35'0 0.0
2017-Nov-10 17:59N 37°57' E 023°35'0 0.0
2017-Nov-10 17:29N 37°57' E 023°35'0 0.0
2017-Nov-10 16:59N 37°57' E 023°35'0 0.0
2017-Nov-10 16:28N 37°57' E 023°35'0 0.0
2017-Nov-10 15:58N 37°57' E 023°35'0 0.0
2017-Nov-10 15:28N 37°57' E 023°35'0 0.0
2017-Nov-10 14:58N 37°57' E 023°35'0 0.0
2017-Nov-10 14:28N 37°57' E 023°35'0 0.0
2017-Nov-10 13:51N 37°57' E 023°35'0 0.0
2017-Nov-10 13:21N 37°57' E 023°35'0 0.0
2017-Nov-10 12:57N 37°57' E 023°35'0 0.1
2017-Nov-10 12:30N 37°57' E 023°35'2 3.3
2017-Nov-10 12:01N 37°56' E 023°36'1 3.0
2017-Nov-10 11:31N 37°55' E 023°36'4 8.2
2017-Nov-10 11:00N 37°51' E 023°39'714.3
2017-Nov-10 10:30N 37°45' E 023°43'713.9
2017-Nov-10 10:00N 37°39' E 023°48'  

Dump ship's entire track history